»·PEaware :: N554B KSJC-KPTV

N554B :: KSJC-KPTV

FLIGHT INFORMATION

Flight Status: Arrived
Operator: Privately registered:
United States
More flights under this callsign
Pilot: Anonymous 37249 (37249)
Aircraft: CESSNA 550 CITATION 2/S2/BRAVO
(C550)
More flights by this aircraft type
Origin: KSJC Mineta San Jose Intl
United States
Destination: KPTV Porterville Mun
United States
More flights between these airports :: More routes between these airports
Route: SJC3 PXN FRA V459 EXTRA
File this flight plan on PilotEdge
Remarks:
Altitude:
(Current/Filed)
21,000ft
Speed:
(Current/Filed)
270kts
Departed: 17-Sep-22 04:29 PM
Arrived: 17-Sep-22 05:06 PM
Distance/Time
Traveled:
160nm/0:37
Distance/Time
To Go:
Arrived

Flight Plot

Page will automatically refresh every two minutes.

Flight plan parsing failed; only flown route is shown


Map Options




Map Legend


Flown Route
Filed Route
Departure Airport
Arrival Airport
Navaid (VOR, NDB)
Fix

Horizontal Profiles

Position Reports

Time Latitude Longitude Heading Altitude Ground
Speed
17-Sep-22 15:45 37.361924 -121.935415 139 50ft 0kts
17-Sep-22 15:46 37.361924 -121.935415 139 50ft 0kts
17-Sep-22 15:47 37.361924 -121.935415 139 50ft 0kts
17-Sep-22 15:48 37.361924 -121.935415 139 50ft 0kts
17-Sep-22 15:49 37.361924 -121.935415 139 50ft 0kts
17-Sep-22 15:50 37.361924 -121.935415 139 50ft 0kts
17-Sep-22 15:51 37.361924 -121.935415 139 50ft 0kts
17-Sep-22 15:52 37.361924 -121.935415 139 50ft 0kts
17-Sep-22 15:53 37.361924 -121.935415 139 50ft 0kts
17-Sep-22 15:54 37.361924 -121.935415 139 50ft 0kts
17-Sep-22 15:55 37.361924 -121.935415 139 50ft 0kts
17-Sep-22 15:56 37.361924 -121.935415 139 50ft 0kts
17-Sep-22 15:57 37.361924 -121.935415 139 50ft 0kts
17-Sep-22 15:58 37.361924 -121.935415 139 50ft 0kts
17-Sep-22 15:59 37.361924 -121.935415 139 50ft 0kts
17-Sep-22 16:00 37.361924 -121.935415 139 50ft 0kts
17-Sep-22 16:01 37.361924 -121.935415 139 50ft 0kts
17-Sep-22 16:02 37.361924 -121.935415 139 50ft 0kts
17-Sep-22 16:03 37.361924 -121.935415 139 50ft 0kts
17-Sep-22 16:04 37.361924 -121.935415 139 50ft 0kts
17-Sep-22 16:05 37.361924 -121.935415 139 50ft 0kts
17-Sep-22 16:06 37.361924 -121.935415 139 50ft 0kts
17-Sep-22 16:07 37.361924 -121.935415 139 50ft 0kts
17-Sep-22 16:08 37.361924 -121.935415 139 50ft 0kts
17-Sep-22 16:09 37.361924 -121.935415 139 50ft 0kts
17-Sep-22 16:10 37.361924 -121.935415 139 50ft 0kts
17-Sep-22 16:11 37.361924 -121.935415 139 50ft 0kts
17-Sep-22 16:12 37.361924 -121.935415 139 50ft 0kts
17-Sep-22 16:13 37.361924 -121.935415 139 50ft 0kts
17-Sep-22 16:14 37.361924 -121.935415 139 50ft 0kts
17-Sep-22 16:15 37.361924 -121.935415 139 50ft 0kts
17-Sep-22 16:16 37.361924 -121.935415 139 50ft 0kts
17-Sep-22 16:17 37.361924 -121.935415 139 50ft 0kts
17-Sep-22 16:18 37.361924 -121.935415 139 50ft 0kts
17-Sep-22 16:19 37.361924 -121.935415 139 50ft 0kts
17-Sep-22 16:20 37.361924 -121.935415 139 50ft 0kts
17-Sep-22 16:21 37.361560 -121.934528 117 51ft 9kts
17-Sep-22 16:22 37.359367 -121.930720 137 52ft 20kts
17-Sep-22 16:23 37.355818 -121.926770 138 57ft 17kts
17-Sep-22 16:24 37.354238 -121.922591 139 59ft 15kts
17-Sep-22 16:25 37.352109 -121.919785 66 62ft 1kts
17-Sep-22 16:26 37.352125 -121.919742 64 62ft 0kts
17-Sep-22 16:27 37.352468 -121.919209 29 62ft 13kts
17-Sep-22 16:28 37.370896 -121.938559 316 895ft 151kts
17-Sep-22 16:29 37.409958 -121.976565 339 3121ft 208kts
17-Sep-22 16:30 37.446956 -121.924180 111 4987ft 279kts
17-Sep-22 16:31 37.390366 -121.854478 143 5003ft 293kts
17-Sep-22 16:32 37.330858 -121.780954 129 6795ft 313kts
17-Sep-22 16:33 37.279197 -121.694052 129 9200ft 309kts
17-Sep-22 16:34 37.225828 -121.606085 130 11435ft 327kts
17-Sep-22 16:35 37.171058 -121.516128 131 13835ft 322kts
17-Sep-22 16:36 37.116502 -121.426990 132 15859ft 327kts
17-Sep-22 16:37 37.100202 -121.312371 93 17526ft 354kts
17-Sep-22 16:38 37.102198 -121.187269 92 19003ft 364kts
17-Sep-22 16:39 37.103413 -121.059662 93 20311ft 372kts
17-Sep-22 16:40 37.104222 -120.926584 93 20789ft 397kts
17-Sep-22 16:41 37.104990 -120.784722 92 20788ft 410kts
17-Sep-22 16:42 37.105599 -120.642849 92 20789ft 409kts
17-Sep-22 16:43 37.105992 -120.500030 92 20790ft 410kts
17-Sep-22 16:44 37.106214 -120.357630 92 20791ft 408kts
17-Sep-22 16:45 37.106248 -120.215311 93 20429ft 410kts
17-Sep-22 16:46 37.106161 -120.075170 93 19706ft 396kts
17-Sep-22 16:47 37.105860 -119.937260 93 18989ft 395kts
17-Sep-22 16:48 37.105431 -119.801131 93 18280ft 387kts
17-Sep-22 16:49 37.102099 -119.667719 106 17571ft 376kts
17-Sep-22 16:50 37.044895 -119.568264 153 16867ft 349kts
17-Sep-22 16:51 36.956605 -119.522806 162 16166ft 344kts
17-Sep-22 16:52 36.867785 -119.479499 162 15280ft 340kts
17-Sep-22 16:53 36.781540 -119.437553 161 13928ft 328kts
17-Sep-22 16:54 36.696806 -119.396460 160 12341ft 326kts
17-Sep-22 16:55 36.613764 -119.356231 160 10794ft 317kts
17-Sep-22 16:56 36.532310 -119.316882 160 9390ft 313kts
17-Sep-22 16:57 36.451537 -119.278005 160 7989ft 308kts
17-Sep-22 16:58 36.373498 -119.240494 160 6582ft 296kts
17-Sep-22 16:59 36.298636 -119.203694 158 5173ft 278kts
17-Sep-22 17:00 36.230746 -119.183068 181 4193ft 246kts
17-Sep-22 17:01 36.163317 -119.182252 181 2787ft 236kts
17-Sep-22 17:02 36.108685 -119.159255 136 2087ft 199kts
17-Sep-22 17:03 36.071768 -119.114049 136 1477ft 178kts
17-Sep-22 17:04 36.042734 -119.078758 136 681ft 116kts
17-Sep-22 17:05 36.026317 -119.058729 130 444ft 35kts
17-Sep-22 17:06 36.026102 -119.056081 315 444ft 13kts
17-Sep-22 17:07 36.028699 -119.058309 317 445ft 5kts
17-Sep-22 17:08 36.028765 -119.058385 317 444ft 0kts
17-Sep-22 17:09 36.028765 -119.058385 317 444ft 0kts
17-Sep-22 17:10 36.028765 -119.058385 317 444ft 0kts
17-Sep-22 17:11 36.028765 -119.058385 317 444ft 0kts
17-Sep-22 17:12 36.028765 -119.058385 317 444ft 0kts
17-Sep-22 17:13 36.028765 -119.058385 317 444ft 0kts
17-Sep-22 17:14 36.028765 -119.058385 317 444ft 0kts
17-Sep-22 17:15 36.028765 -119.058385 317 444ft 0kts
17-Sep-22 17:16 36.028765 -119.058385 317 444ft 0kts
17-Sep-22 17:17 36.028765 -119.058385 317 444ft 0kts
17-Sep-22 17:18 36.028765 -119.058385 317 444ft 0kts
17-Sep-22 17:19 36.028765 -119.058385 317 444ft 0kts

Navigation Log

Ident Type
Flight plan parsing failed, navigation log unavailable